createdAt,value
2022-11-13T00:01:25.901Z,12.57
2022-11-13T00:03:53.058Z,12.20
2022-11-13T00:06:20.330Z,11.10
2022-11-13T00:08:48.146Z,13.97
2022-11-13T00:11:21.022Z,12.60
2022-11-13T00:13:50.280Z,13.03
2022-11-13T00:16:21.552Z,13.20
2022-11-13T00:18:50.971Z,14.57
2022-11-13T00:21:23.063Z,13.20
2022-11-13T00:23:51.669Z,12.33
2022-11-13T00:26:28.158Z,12.67
2022-11-13T00:29:01.779Z,13.20
2022-11-13T00:31:29.843Z,10.87
2022-11-13T00:36:50.232Z,16.57
2022-11-13T00:39:17.328Z,14.17
2022-11-13T00:41:46.674Z,13.40
2022-11-13T00:44:13.708Z,12.93
2022-11-13T00:46:40.986Z,12.13
2022-11-13T00:49:08.146Z,13.60
2022-11-13T00:51:42.049Z,13.77
2022-11-13T00:54:09.203Z,11.70
2022-11-13T00:56:40.863Z,12.47
2022-11-13T00:59:10.431Z,13.17
2022-11-13T01:01:37.637Z,12.97
2022-11-13T01:04:04.865Z,11.73
2022-11-13T01:06:34.434Z,13.23
2022-11-13T01:09:04.636Z,15.90
2022-11-13T01:11:31.732Z,15.67
2022-11-13T01:13:58.866Z,13.97
2022-11-13T01:16:27.885Z,12.60
2022-11-13T01:18:56.019Z,14.53
2022-11-13T01:21:29.946Z,15.20
2022-11-13T01:23:57.346Z,16.20
2022-11-13T01:26:28.352Z,16.07
2022-11-13T01:28:59.695Z,15.60
2022-11-13T01:31:30.099Z,13.83
2022-11-13T01:34:02.046Z,11.90
2022-11-13T01:36:29.764Z,13.33
2022-11-13T01:39:01.576Z,12.57
2022-11-13T01:41:31.442Z,11.77
2022-11-13T01:43:59.771Z,12.43
2022-11-13T01:46:39.031Z,13.57
2022-11-13T01:49:14.148Z,13.17
2022-11-13T01:51:51.782Z,12.67
2022-11-13T01:54:31.444Z,12.20
2022-11-13T01:56:59.083Z,12.43
2022-11-13T01:59:34.460Z,11.50
2022-11-13T02:02:01.785Z,11.53
2022-11-13T02:04:34.923Z,11.93
2022-11-13T02:07:05.844Z,11.33
2022-11-13T02:09:46.453Z,12.30
2022-11-13T02:12:30.956Z,13.80
2022-11-13T02:14:59.995Z,11.87
2022-11-13T02:17:32.594Z,12.53
2022-11-13T02:20:02.974Z,12.47
2022-11-13T02:22:48.950Z,13.37
2022-11-13T02:25:21.831Z,12.27
2022-11-13T02:27:50.581Z,13.30
2022-11-13T02:30:27.178Z,12.77
2022-11-13T02:32:56.709Z,12.37
2022-11-13T02:35:35.595Z,11.53
2022-11-13T02:38:05.711Z,12.30
2022-11-13T02:40:39.132Z,12.50
2022-11-13T02:43:08.762Z,13.10
2022-11-13T02:45:40.906Z,13.13
2022-11-13T02:48:10.423Z,13.73
2022-11-13T02:50:38.531Z,12.03
2022-11-13T02:53:06.677Z,12.77
2022-11-13T02:55:36.398Z,14.37
2022-11-13T02:58:03.525Z,13.13
2022-11-13T03:00:32.692Z,13.10
2022-11-13T03:02:59.764Z,13.77
2022-11-13T03:05:29.147Z,12.93
2022-11-13T03:07:58.580Z,13.67
2022-11-13T03:10:28.527Z,13.53
2022-11-13T03:12:55.587Z,13.17
2022-11-13T03:15:25.051Z,13.60
2022-11-13T03:17:54.495Z,13.57
2022-11-13T03:20:21.752Z,13.73
2022-11-13T03:22:48.896Z,15.33
2022-11-13T03:25:18.591Z,15.93
2022-11-13T03:27:50.521Z,16.23
2022-11-13T03:30:17.756Z,13.80
2022-11-13T03:32:50.014Z,15.03
2022-11-13T03:35:17.101Z,15.43
2022-11-13T03:37:46.244Z,16.00
2022-11-13T03:40:13.315Z,14.17
2022-11-13T03:42:40.407Z,14.47
2022-11-13T03:45:07.817Z,14.73
2022-11-13T03:47:37.141Z,15.17
2022-11-13T03:50:08.961Z,14.53
2022-11-13T03:52:38.413Z,14.07
2022-11-13T03:55:05.898Z,13.13
2022-11-13T03:57:35.486Z,13.73
2022-11-13T04:00:06.241Z,13.80
2022-11-13T04:02:33.332Z,15.40
2022-11-13T04:05:00.477Z,12.83
2022-11-13T04:07:30.336Z,13.77
2022-11-13T04:10:01.924Z,15.50
2022-11-13T04:12:33.625Z,13.73
2022-11-13T04:15:02.779Z,14.10
2022-11-13T04:17:29.830Z,13.90
2022-11-13T04:19:58.969Z,16.03
2022-11-13T04:22:28.384Z,14.87
2022-11-13T04:24:59.759Z,14.33
2022-11-13T04:27:29.169Z,14.43
2022-11-13T04:29:56.213Z,14.83
2022-11-13T04:32:26.326Z,14.53
2022-11-13T04:34:53.403Z,14.43
2022-11-13T04:37:24.875Z,14.20
2022-11-13T04:39:54.155Z,13.40
2022-11-13T04:42:39.624Z,13.90
2022-11-13T04:45:09.257Z,13.43
2022-11-13T04:47:38.511Z,13.87
2022-11-13T04:50:05.939Z,13.53
2022-11-13T04:52:37.786Z,15.77
2022-11-13T04:55:05.398Z,14.70
2022-11-13T04:57:32.793Z,13.47
2022-11-13T05:00:04.537Z,14.13
2022-11-13T05:02:31.642Z,14.17
2022-11-13T05:05:05.180Z,12.97
2022-11-13T05:07:34.766Z,15.37
2022-11-13T05:10:01.865Z,15.43
2022-11-13T05:12:36.334Z,14.73
2022-11-13T05:15:06.152Z,14.93
2022-11-13T05:17:33.238Z,15.73
2022-11-13T05:20:02.738Z,17.67
2022-11-13T05:22:29.848Z,16.23
2022-11-13T05:24:56.936Z,17.07
2022-11-13T05:27:24.029Z,15.13
2022-11-13T05:29:53.569Z,13.57
2022-11-13T05:32:22.963Z,15.10
2022-11-13T05:34:52.360Z,14.83
2022-11-13T05:37:19.484Z,14.40
2022-11-13T05:39:46.537Z,15.43
2022-11-13T05:42:21.032Z,16.57
2022-11-13T05:44:48.143Z,17.37
2022-11-13T05:47:15.226Z,15.47
2022-11-13T05:49:42.312Z,13.63
2022-11-13T05:52:09.403Z,15.63
2022-11-13T05:54:40.896Z,13.70
2022-11-13T05:57:08.017Z,15.70
2022-11-13T05:59:35.064Z,15.57
2022-11-13T06:02:02.317Z,15.00
2022-11-13T06:04:31.896Z,14.37
2022-11-13T06:07:01.505Z,15.80
2022-11-13T06:09:28.571Z,15.13
2022-11-13T06:11:57.906Z,14.63
2022-11-13T06:14:25.022Z,16.13
2022-11-13T06:16:52.090Z,15.10
2022-11-13T06:19:21.525Z,16.10
2022-11-13T06:21:53.105Z,14.87
2022-11-13T06:24:20.525Z,17.67
2022-11-13T06:26:49.735Z,14.00
2022-11-13T06:29:16.807Z,15.10
2022-11-13T06:31:46.846Z,17.40
2022-11-13T06:34:16.152Z,17.80
2022-11-13T06:36:43.339Z,15.50
2022-11-13T06:39:13.422Z,16.13
2022-11-13T06:41:45.040Z,17.00
2022-11-13T06:44:14.523Z,16.37
2022-11-13T06:46:41.664Z,15.37
2022-11-13T06:49:08.921Z,16.20
2022-11-13T06:51:36.089Z,15.50
2022-11-13T06:54:07.812Z,13.70
2022-11-13T06:56:37.115Z,14.03
2022-11-13T06:59:08.758Z,14.70
2022-11-13T07:01:35.901Z,15.20
2022-11-13T07:04:06.396Z,14.40
2022-11-13T07:06:39.082Z,14.57
2022-11-13T07:09:08.324Z,12.77
2022-11-13T07:11:35.735Z,13.37
2022-11-13T07:14:02.770Z,13.23
2022-11-13T07:16:44.209Z,12.03
2022-11-13T07:19:21.614Z,13.40
2022-11-13T07:21:48.744Z,12.40
2022-11-13T07:24:18.379Z,14.07
2022-11-13T07:26:50.105Z,12.10
2022-11-13T07:29:17.200Z,12.73
2022-11-13T07:31:46.774Z,12.43
2022-11-13T07:34:14.774Z,14.30
2022-11-13T07:36:41.887Z,10.70
2022-11-13T07:39:08.922Z,11.93
2022-11-13T07:41:38.381Z,9.83
2022-11-13T07:44:11.102Z,12.13
2022-11-13T07:46:42.349Z,12.70
2022-11-13T07:49:09.381Z,10.90
2022-11-13T07:51:38.691Z,11.57
2022-11-13T07:54:08.251Z,11.50
2022-11-13T07:56:40.444Z,10.77
2022-11-13T07:59:10.045Z,10.47
2022-11-13T08:01:38.397Z,11.70
2022-11-13T08:04:08.027Z,13.03
2022-11-13T08:06:39.541Z,12.80
2022-11-13T08:09:09.034Z,12.17
2022-11-13T08:11:36.453Z,12.77
2022-11-13T08:14:13.431Z,11.83
2022-11-13T08:16:40.574Z,11.83
2022-11-13T08:19:07.876Z,12.53
2022-11-13T08:21:40.092Z,13.97
2022-11-13T08:24:08.895Z,12.73
2022-11-13T08:26:38.946Z,13.93
2022-11-13T08:29:08.072Z,13.33
2022-11-13T08:31:35.164Z,15.53
2022-11-13T08:34:02.535Z,12.93
2022-11-13T08:36:37.032Z,12.10
2022-11-13T08:39:04.312Z,13.33
2022-11-13T08:41:31.393Z,12.77
2022-11-13T08:43:58.425Z,11.43
2022-11-13T08:46:25.564Z,12.23
2022-11-13T08:48:55.903Z,12.80
2022-11-13T08:51:27.596Z,12.40
2022-11-13T08:53:54.663Z,10.97
2022-11-13T08:56:21.745Z,10.87
2022-11-13T08:58:53.090Z,11.57
2022-11-13T09:01:22.895Z,10.40
2022-11-13T09:03:52.356Z,13.73
2022-11-13T09:06:26.841Z,11.40
2022-11-13T09:08:53.930Z,11.37
2022-11-13T09:11:21.002Z,11.00
2022-11-13T09:13:53.298Z,11.13
2022-11-13T09:16:27.775Z,10.57
2022-11-13T09:19:01.354Z,12.40
2022-11-13T09:21:28.587Z,10.40
2022-11-13T09:23:55.815Z,12.40
2022-11-13T09:26:25.010Z,11.10
2022-11-13T09:28:52.076Z,11.40
2022-11-13T09:31:19.181Z,12.33
2022-11-13T09:33:46.375Z,13.70
2022-11-13T09:36:15.355Z,14.37
2022-11-13T09:38:44.878Z,10.53
2022-11-13T09:41:17.375Z,11.73
2022-11-13T09:43:58.381Z,10.10
2022-11-13T09:46:42.475Z,12.97
2022-11-13T09:49:11.921Z,9.70
2022-11-13T09:51:39.464Z,8.90
2022-11-13T09:54:15.881Z,11.80
2022-11-13T09:57:09.680Z,10.60
2022-11-13T09:59:54.708Z,9.77
2022-11-13T10:02:48.839Z,12.43
2022-11-13T10:05:30.628Z,10.93
2022-11-13T10:08:28.147Z,12.00
2022-11-13T10:11:13.298Z,10.63
2022-11-13T10:13:46.004Z,10.80
2022-11-13T10:16:18.998Z,10.53
2022-11-13T10:18:48.436Z,9.00
2022-11-13T10:21:20.104Z,9.13
2022-11-13T10:23:54.658Z,9.70
2022-11-13T10:26:24.865Z,9.50
2022-11-13T10:29:01.474Z,8.77
2022-11-13T10:31:40.581Z,8.67
2022-11-13T10:34:13.250Z,8.27
2022-11-13T10:37:04.818Z,10.70
2022-11-13T10:39:31.834Z,9.07
2022-11-13T10:41:58.933Z,9.20
2022-11-13T10:44:37.866Z,8.73
2022-11-13T10:47:26.439Z,8.13
2022-11-13T10:50:22.633Z,7.63
2022-11-13T10:52:57.893Z,7.57
2022-11-13T10:55:36.539Z,7.77
2022-11-13T10:58:18.710Z,7.33
2022-11-13T11:00:49.895Z,7.33
2022-11-13T11:03:22.543Z,7.90
2022-11-13T11:06:07.832Z,10.03
2022-11-13T11:08:35.983Z,7.70
2022-11-13T11:11:35.705Z,7.63
2022-11-13T11:14:27.781Z,7.03
2022-11-13T11:16:56.233Z,7.90
2022-11-13T11:19:30.715Z,7.70
2022-11-13T11:22:19.468Z,8.90
2022-11-13T11:24:56.414Z,8.07
2022-11-13T11:27:33.837Z,8.13
2022-11-13T11:30:22.020Z,9.00
2022-11-13T11:33:00.753Z,9.03
2022-11-13T11:35:44.349Z,7.73
2022-11-13T11:38:24.907Z,11.57
2022-11-13T11:40:58.953Z,10.23
2022-11-13T11:43:50.031Z,10.27
2022-11-13T11:46:21.941Z,13.07
2022-11-13T11:48:50.924Z,13.53
2022-11-13T11:51:31.304Z,10.87
2022-11-13T11:54:24.087Z,9.67
2022-11-13T11:56:57.988Z,11.30
2022-11-13T11:59:34.039Z,10.50
2022-11-13T12:02:30.506Z,8.20
2022-11-13T12:05:25.382Z,12.20
2022-11-13T12:08:19.477Z,9.53
2022-11-13T12:11:09.404Z,10.83
2022-11-13T12:14:05.073Z,9.33
2022-11-13T12:16:35.274Z,10.17
2022-11-13T12:19:11.232Z,8.60
2022-11-13T12:21:57.580Z,8.50
2022-11-13T12:24:29.660Z,7.90
2022-11-13T12:27:04.434Z,9.53
2022-11-13T12:29:50.467Z,8.87
2022-11-13T12:32:46.778Z,8.23
2022-11-13T12:35:21.085Z,7.87
2022-11-13T12:38:01.682Z,7.97
2022-11-13T12:40:41.201Z,7.40
2022-11-13T12:43:42.218Z,8.60
2022-11-13T12:46:14.004Z,8.43
2022-11-13T12:48:47.626Z,5.97
2022-11-13T12:51:18.129Z,7.70
2022-11-13T12:53:51.214Z,7.20
2022-11-13T12:56:24.302Z,5.63
2022-11-13T12:59:28.545Z,7.73
2022-11-13T13:02:09.273Z,7.03
2022-11-13T13:05:02.851Z,5.60
2022-11-13T13:07:38.901Z,6.03
2022-11-13T13:10:22.269Z,5.23
2022-11-13T13:13:10.951Z,4.90
2022-11-13T13:15:46.730Z,5.23
2022-11-13T13:18:19.209Z,5.80
2022-11-13T13:21:00.180Z,5.57
2022-11-13T13:23:36.654Z,5.57
2022-11-13T13:26:23.620Z,7.17
2022-11-13T13:29:02.238Z,5.87
2022-11-13T13:31:35.972Z,5.97
2022-11-13T13:34:30.013Z,5.60
2022-11-13T13:37:19.556Z,6.03
2022-11-13T13:40:14.276Z,6.50
2022-11-13T13:43:28.509Z,7.60
2022-11-13T13:46:07.691Z,6.00
2022-11-13T13:48:40.378Z,6.43
2022-11-13T13:51:17.826Z,6.10
2022-11-13T13:53:48.514Z,5.90
2022-11-13T13:56:19.876Z,7.37
2022-11-13T13:58:47.365Z,8.20
2022-11-13T14:01:26.008Z,6.23
2022-11-13T14:04:13.990Z,6.23
2022-11-13T14:07:21.178Z,5.83
2022-11-13T14:09:48.330Z,5.67
2022-11-13T14:12:24.837Z,6.30
2022-11-13T14:14:59.065Z,6.53
2022-11-13T14:17:26.324Z,6.70
2022-11-13T14:20:02.070Z,5.83
2022-11-13T14:22:31.553Z,7.30
2022-11-13T14:25:01.571Z,6.90
2022-11-13T14:27:31.543Z,6.33
2022-11-13T14:30:09.782Z,5.97
2022-11-13T14:32:46.995Z,5.90
2022-11-13T14:35:26.384Z,7.30
2022-11-13T14:37:57.128Z,7.40
2022-11-13T14:40:28.859Z,7.90
2022-11-13T14:43:02.295Z,7.40
2022-11-13T14:45:32.829Z,7.77
2022-11-13T14:48:21.406Z,7.20
2022-11-13T14:50:54.350Z,7.43
2022-11-13T14:53:35.893Z,10.87
2022-11-13T14:56:09.281Z,7.17
2022-11-13T14:58:43.938Z,8.53
2022-11-13T15:01:25.548Z,7.67
2022-11-13T15:03:59.523Z,7.67
2022-11-13T15:06:33.950Z,8.90
2022-11-13T15:09:01.214Z,8.30
2022-11-13T15:11:28.330Z,8.93
2022-11-13T15:14:02.925Z,8.07
2022-11-13T15:16:36.308Z,7.37
2022-11-13T15:19:06.421Z,9.00
2022-11-13T15:21:33.642Z,9.57
2022-11-13T15:24:05.576Z,9.93
2022-11-13T15:26:32.688Z,8.90
2022-11-13T15:28:59.757Z,10.20
2022-11-13T15:31:33.192Z,8.97
2022-11-13T15:34:02.730Z,8.53
2022-11-13T15:36:32.380Z,8.00
2022-11-13T15:39:02.397Z,11.20
2022-11-13T15:41:36.190Z,9.93
2022-11-13T15:44:10.050Z,9.30
2022-11-13T15:46:39.228Z,8.90
2022-11-13T15:49:08.792Z,8.40
2022-11-13T15:51:49.905Z,9.87
2022-11-13T15:54:37.851Z,10.03
2022-11-13T15:57:05.001Z,10.37
2022-11-13T15:59:32.274Z,11.23
2022-11-13T16:02:01.609Z,12.23
2022-11-13T16:04:54.657Z,11.77
2022-11-13T16:07:26.580Z,11.13
2022-11-13T16:09:55.874Z,9.40
2022-11-13T16:12:25.012Z,10.97
2022-11-13T16:14:52.135Z,11.27
2022-11-13T16:17:24.251Z,11.77
2022-11-13T16:19:54.681Z,14.00
2022-11-13T16:22:26.558Z,11.87
2022-11-13T16:25:03.216Z,13.13
2022-11-13T16:27:34.212Z,12.07
2022-11-13T16:30:06.588Z,13.40
2022-11-13T16:32:36.294Z,14.33
2022-11-13T16:35:03.533Z,15.00
2022-11-13T16:37:33.227Z,14.17
2022-11-13T16:40:02.584Z,14.43
2022-11-13T16:42:34.100Z,11.20
2022-11-13T16:45:03.579Z,15.97
2022-11-13T16:47:33.196Z,13.10
2022-11-13T16:50:01.017Z,13.33
2022-11-13T16:52:31.879Z,13.07
2022-11-13T16:55:06.084Z,12.50
2022-11-13T16:57:40.996Z,14.23
2022-11-13T17:00:13.571Z,15.20
2022-11-13T17:02:41.413Z,14.53
2022-11-13T17:05:16.087Z,14.77
2022-11-13T17:07:43.473Z,15.13
2022-11-13T17:10:32.690Z,12.87
2022-11-13T17:13:00.850Z,13.03
2022-11-13T17:15:30.143Z,14.80
2022-11-13T17:17:58.660Z,16.07
2022-11-13T17:20:25.985Z,14.47
2022-11-13T17:22:56.022Z,12.53
2022-11-13T17:25:28.138Z,17.50
2022-11-13T17:27:57.448Z,17.83
2022-11-13T17:30:26.925Z,15.67
2022-11-13T17:32:56.246Z,16.43
2022-11-13T17:35:25.533Z,17.90
2022-11-13T17:37:52.592Z,20.37
2022-11-13T17:40:24.612Z,16.47
2022-11-13T17:42:53.745Z,14.97
2022-11-13T17:45:22.874Z,19.83
2022-11-13T17:47:50.235Z,18.17
2022-11-13T17:50:17.413Z,16.80
2022-11-13T17:52:49.320Z,18.67
2022-11-13T17:55:17.371Z,19.20
2022-11-13T17:57:44.609Z,18.37
2022-11-13T18:00:16.795Z,21.07
2022-11-13T18:02:46.506Z,20.00
2022-11-13T18:05:13.622Z,19.80
2022-11-13T18:07:41.176Z,18.77
2022-11-13T18:10:13.273Z,16.47
2022-11-13T18:12:40.442Z,18.60
2022-11-13T18:15:10.196Z,20.80
2022-11-13T18:17:37.230Z,20.83
2022-11-13T18:20:07.103Z,22.10
2022-11-13T18:22:38.740Z,19.87
2022-11-13T18:25:06.346Z,20.00
2022-11-13T18:27:36.567Z,19.20
2022-11-13T18:30:03.876Z,17.70
2022-11-13T18:32:31.400Z,20.10
2022-11-13T18:35:00.726Z,18.40
2022-11-13T18:37:30.352Z,17.50
2022-11-13T18:39:58.662Z,20.90
2022-11-13T18:42:28.568Z,19.57
2022-11-13T18:45:01.654Z,18.90
2022-11-13T18:47:33.868Z,22.27
2022-11-13T18:50:05.443Z,19.00
2022-11-13T18:52:32.809Z,20.50
2022-11-13T18:55:04.900Z,17.53
2022-11-13T18:57:38.417Z,19.37
2022-11-13T19:00:08.565Z,21.10
2022-11-13T19:02:38.099Z,19.87
2022-11-13T19:05:05.324Z,22.63
2022-11-13T19:07:34.445Z,25.00
2022-11-13T19:10:03.850Z,23.50
2022-11-13T19:12:31.384Z,24.57
2022-11-13T19:14:58.450Z,24.47
2022-11-13T19:17:25.534Z,27.30
2022-11-13T19:19:55.639Z,22.70
2022-11-13T19:22:24.876Z,22.57
2022-11-13T19:24:52.556Z,18.83
2022-11-13T19:27:21.886Z,22.60
2022-11-13T19:29:49.009Z,19.90
2022-11-13T19:32:16.101Z,19.90
2022-11-13T19:34:46.776Z,18.53
2022-11-13T19:37:18.869Z,18.30
2022-11-13T19:39:47.982Z,18.80
2022-11-13T19:42:17.403Z,20.00
2022-11-13T19:44:44.585Z,22.93
2022-11-13T19:47:14.224Z,22.40
2022-11-13T19:49:43.354Z,21.10
2022-11-13T19:52:15.229Z,17.93
2022-11-13T19:54:42.761Z,18.87
2022-11-13T19:57:09.882Z,22.17
2022-11-13T19:59:39.569Z,22.77
2022-11-13T20:02:06.700Z,23.70
2022-11-13T20:04:36.020Z,21.63
2022-11-13T20:07:07.743Z,20.93
2022-11-13T20:09:37.135Z,21.20
2022-11-13T20:12:04.493Z,19.33
2022-11-13T20:14:35.704Z,19.60
2022-11-13T20:17:05.459Z,23.73
2022-11-13T20:19:34.790Z,22.70
2022-11-13T20:22:06.121Z,21.37
2022-11-13T20:24:35.547Z,19.70
2022-11-13T20:27:05.333Z,21.23
2022-11-13T20:29:34.925Z,24.90
2022-11-13T20:32:04.556Z,22.57
2022-11-13T20:34:33.828Z,21.60
2022-11-13T20:37:01.385Z,22.40
2022-11-13T20:39:28.531Z,24.83
2022-11-13T20:41:57.729Z,21.30
2022-11-13T20:44:27.056Z,22.90
2022-11-13T20:46:56.549Z,21.97
2022-11-13T20:49:25.948Z,21.43
2022-11-13T20:51:56.947Z,26.90
2022-11-13T20:54:24.552Z,20.50
2022-11-13T20:56:54.080Z,21.47
2022-11-13T20:59:23.449Z,21.63
2022-11-13T21:01:53.297Z,20.97
2022-11-13T21:04:20.486Z,22.97
2022-11-13T21:06:47.644Z,21.33
2022-11-13T21:09:17.227Z,19.43
2022-11-13T21:11:46.608Z,20.97
2022-11-13T21:14:16.030Z,21.87
2022-11-13T21:16:43.167Z,23.53
2022-11-13T21:19:12.714Z,22.13
2022-11-13T21:21:42.393Z,22.17
2022-11-13T21:24:09.446Z,22.87
2022-11-13T21:26:41.484Z,21.97
2022-11-13T21:29:12.903Z,21.03
2022-11-13T21:31:42.321Z,21.13
2022-11-13T21:34:13.993Z,21.43
2022-11-13T21:36:43.550Z,20.00
2022-11-13T21:39:10.675Z,18.93
2022-11-13T21:41:40.210Z,21.80
2022-11-13T21:44:10.544Z,22.60
2022-11-13T21:46:46.330Z,20.90
2022-11-13T21:49:13.941Z,22.83
2022-11-13T21:51:43.312Z,19.67
2022-11-13T21:54:12.998Z,20.23
2022-11-13T21:56:42.385Z,21.07
2022-11-13T21:59:12.721Z,20.87
2022-11-13T22:01:39.853Z,20.57
2022-11-13T22:04:09.294Z,19.93
2022-11-13T22:06:36.602Z,22.43
2022-11-13T22:09:17.748Z,19.37
2022-11-13T22:11:47.370Z,21.40
2022-11-13T22:14:14.522Z,17.73
2022-11-13T22:16:44.425Z,18.47
2022-11-13T22:19:16.224Z,20.83
2022-11-13T22:21:46.575Z,19.43
2022-11-13T22:24:14.613Z,21.50
2022-11-13T22:26:45.334Z,20.17
2022-11-13T22:29:17.269Z,19.13
2022-11-13T22:31:45.011Z,20.90
2022-11-13T22:34:14.265Z,18.97
2022-11-13T22:36:41.739Z,19.23
2022-11-13T22:39:13.485Z,22.33
2022-11-13T22:41:40.625Z,20.07
2022-11-13T22:44:10.478Z,21.67
2022-11-13T22:46:37.594Z,20.83
2022-11-13T22:49:05.857Z,20.97
2022-11-13T22:51:38.321Z,17.90
2022-11-13T22:54:12.615Z,19.97
2022-11-13T22:56:47.031Z,20.03
2022-11-13T22:59:18.420Z,20.13
2022-11-13T23:01:46.468Z,19.67
2022-11-13T23:04:14.015Z,21.97
2022-11-13T23:06:43.830Z,20.47
2022-11-13T23:09:14.013Z,19.10
2022-11-13T23:11:42.347Z,18.93
2022-11-13T23:14:12.329Z,21.10
2022-11-13T23:16:41.671Z,19.90
2022-11-13T23:19:09.684Z,21.23
2022-11-13T23:21:36.733Z,18.63
2022-11-13T23:24:04.239Z,18.27
2022-11-13T23:26:33.650Z,18.67
2022-11-13T23:29:02.807Z,16.37
2022-11-13T23:31:29.935Z,18.10
2022-11-13T23:33:56.997Z,18.90
2022-11-13T23:36:24.164Z,18.43
2022-11-13T23:38:55.498Z,21.10
2022-11-13T23:41:24.834Z,18.37
2022-11-13T23:44:08.132Z,19.57
2022-11-13T23:46:36.130Z,18.47
2022-11-13T23:49:07.796Z,18.27
2022-11-13T23:51:39.166Z,25.20
2022-11-13T23:54:08.260Z,19.90
2022-11-13T23:56:37.465Z,20.40
2022-11-13T23:59:06.790Z,20.10
